Istanbul, Turki

06:29 PM EET on Maret 03, 2015 (GMT +0200)
Ataturk | Change Station
CLOSE
Current Station
Airport
Location: Istanbul,
Elevation: 121 ft
Nearby Weather Stations

Elev 121 ft 40.98 °N, 28.81 °E | Updated 39 minutes ago

Mostly Cloudy
Mendung Merata
48 °F
Feels Like 48 °F
N
21
Angin Variable Angin from Arah Utara

Siang Ini
High -- | Low -- °F
--% Chance of Precip.
Yesterday
High -- | Low -- °F
Precip. -- Inch
6:36 AM 5:57 PM
Waxing Gibbous, 96% visible
Tekanan 30.09 Inch
Jarak Pandang 6.2 Mil
Awan Mendung Tidak Merata 3000 ft
Mendung Merata 8000 ft
Titik Embun 41 °F
Kelembaban 76%
Rainfall 0.00 Inch
Snow Depth Not available.
UV 0 out of 12
Pollen Not available.
Air Quality Not available.
Flu Activity Not available.
METAR LTBA 031550Z 35018KT 9999 SCT030 BKN080 09/05 Q1019 RESHRA NOSIG

More Conditions Fewer Conditions

Tekanan 30.09 Inch
Jarak Pandang 6.2 Mil
Awan Mendung Tidak Merata 3000 ft
Mendung Merata 8000 ft
Titik Embun 41 °F
Kelembaban 76%
Rainfall 0.00 Inch
Snow Depth Not available.
UV 0 out of 12
Pollen Not available.
Air Quality Not available.
Flu Activity Not available.
METAR LTBA 031550Z 35018KT 9999 SCT030 BKN080 09/05 Q1019 RESHRA NOSIG

More Conditions Fewer Conditions

10-Day Weather Forecast

Almanac

Astronomi

Mar. 03, 2015 Rise Set
Actual Time
Civil Twilight
Nautical Twilight
Astronomical Twilight
Moon
Length Of Visible Light
Lama Satu Hari
Tomorrow will be .
, % of the Moon is Illuminated

Today's Extremes

Country Highs Country Lows

Community

WunderPhotos

Upload Photos

1,802,156 photos uploaded!

WunderBlogs® & News

Nearby

Air Quality

  Air Quality AQ Index Pollutant
Not available.

Snow Depth

Station Depth Elevation

Earthquake Activity

City Distance Mag. Time & Date
Minimum magnitude displayed is 2.5.

Coastal Water Temperatures

Lokasi Temperatur

Nearby Weather Stations